sensor_id;sensor_type;location;lat;lon;timestamp;temperature;humidity
68804;SHT31;55787;52.678;13.314;2024-01-11T00:02:20;-7.62;98.68
68804;SHT31;55787;52.678;13.314;2024-01-11T00:04:49;-7.55;99.00
68804;SHT31;55787;52.678;13.314;2024-01-11T00:07:16;-7.55;99.23
68804;SHT31;55787;52.678;13.314;2024-01-11T00:09:43;-7.67;98.80
68804;SHT31;55787;52.678;13.314;2024-01-11T00:12:11;-7.61;99.22
68804;SHT31;55787;52.678;13.314;2024-01-11T00:14:37;-7.52;99.16
68804;SHT31;55787;52.678;13.314;2024-01-11T00:17:04;-7.47;99.03
68804;SHT31;55787;52.678;13.314;2024-01-11T00:19:30;-7.36;98.70
68804;SHT31;55787;52.678;13.314;2024-01-11T00:21:58;-7.36;98.91
68804;SHT31;55787;52.678;13.314;2024-01-11T00:24:24;-7.41;98.61
68804;SHT31;55787;52.678;13.314;2024-01-11T00:26:51;-7.50;99.01
68804;SHT31;55787;52.678;13.314;2024-01-11T00:29:17;-7.44;99.21
68804;SHT31;55787;52.678;13.314;2024-01-11T00:31:44;-7.40;99.11
68804;SHT31;55787;52.678;13.314;2024-01-11T00:34:11;-7.36;99.39
68804;SHT31;55787;52.678;13.314;2024-01-11T00:36:38;-7.30;99.30
68804;SHT31;55787;52.678;13.314;2024-01-11T00:39:05;-7.23;99.37
68804;SHT31;55787;52.678;13.314;2024-01-11T00:41:31;-7.20;99.00
68804;SHT31;55787;52.678;13.314;2024-01-11T00:43:58;-7.16;99.05
68804;SHT31;55787;52.678;13.314;2024-01-11T00:46:25;-7.16;99.20
68804;SHT31;55787;52.678;13.314;2024-01-11T00:48:51;-7.08;99.52
68804;SHT31;55787;52.678;13.314;2024-01-11T00:51:22;-7.15;99.18
68804;SHT31;55787;52.678;13.314;2024-01-11T00:53:48;-7.13;99.27
68804;SHT31;55787;52.678;13.314;2024-01-11T00:56:16;-7.12;99.37
68804;SHT31;55787;52.678;13.314;2024-01-11T00:58:43;-7.08;99.44
68804;SHT31;55787;52.678;13.314;2024-01-11T01:01:10;-7.00;99.43
68804;SHT31;55787;52.678;13.314;2024-01-11T01:03:37;-6.92;99.35
68804;SHT31;55787;52.678;13.314;2024-01-11T01:06:04;-6.88;99.57
68804;SHT31;55787;52.678;13.314;2024-01-11T01:08:31;-6.88;99.64
68804;SHT31;55787;52.678;13.314;2024-01-11T01:10:58;-6.84;99.66
68804;SHT31;55787;52.678;13.314;2024-01-11T01:13:25;-6.75;99.73
68804;SHT31;55787;52.678;13.314;2024-01-11T01:15:52;-6.69;99.74
68804;SHT31;55787;52.678;13.314;2024-01-11T01:18:18;-6.68;99.65
68804;SHT31;55787;52.678;13.314;2024-01-11T01:20:45;-6.61;99.87
68804;SHT31;55787;52.678;13.314;2024-01-11T01:23:12;-6.61;99.99
68804;SHT31;55787;52.678;13.314;2024-01-11T01:25:38;-6.55;99.77
68804;SHT31;55787;52.678;13.314;2024-01-11T01:28:05;-6.52;99.66
68804;SHT31;55787;52.678;13.314;2024-01-11T01:30:31;-6.44;99.78
68804;SHT31;55787;52.678;13.314;2024-01-11T01:32:58;-6.33;99.73
68804;SHT31;55787;52.678;13.314;2024-01-11T01:35:25;-6.26;99.89
68804;SHT31;55787;52.678;13.314;2024-01-11T01:37:51;-6.19;99.62
68804;SHT31;55787;52.678;13.314;2024-01-11T01:40:18;-6.14;99.73
68804;SHT31;55787;52.678;13.314;2024-01-11T01:42:45;-6.16;99.65
68804;SHT31;55787;52.678;13.314;2024-01-11T01:45:12;-6.11;99.70
68804;SHT31;55787;52.678;13.314;2024-01-11T01:47:40;-6.06;99.84
68804;SHT31;55787;52.678;13.314;2024-01-11T01:50:10;-6.02;99.79
68804;SHT31;55787;52.678;13.314;2024-01-11T01:52:38;-5.96;99.89
68804;SHT31;55787;52.678;13.314;2024-01-11T01:55:06;-5.92;99.67
68804;SHT31;55787;52.678;13.314;2024-01-11T01:57:35;-5.88;99.67
68804;SHT31;55787;52.678;13.314;2024-01-11T02:00:02;-5.83;99.63
68804;SHT31;55787;52.678;13.314;2024-01-11T02:02:31;-5.72;99.68
68804;SHT31;55787;52.678;13.314;2024-01-11T02:04:59;-5.68;99.63
68804;SHT31;55787;52.678;13.314;2024-01-11T02:07:26;-5.59;99.50
68804;SHT31;55787;52.678;13.314;2024-01-11T02:09:54;-5.55;99.53
68804;SHT31;55787;52.678;13.314;2024-01-11T02:12:20;-5.52;99.48
68804;SHT31;55787;52.678;13.314;2024-01-11T02:14:47;-5.42;99.31
68804;SHT31;55787;52.678;13.314;2024-01-11T02:17:14;-5.39;99.09
68804;SHT31;55787;52.678;13.314;2024-01-11T02:19:40;-5.39;99.17
68804;SHT31;55787;52.678;13.314;2024-01-11T02:22:38;-5.35;99.21
68804;SHT31;55787;52.678;13.314;2024-01-11T02:25:07;-5.31;99.05
68804;SHT31;55787;52.678;13.314;2024-01-11T02:27:49;-5.30;99.18
68804;SHT31;55787;52.678;13.314;2024-01-11T02:30:17;-5.24;99.16
68804;SHT31;55787;52.678;13.314;2024-01-11T02:32:45;-5.18;99.05
68804;SHT31;55787;52.678;13.314;2024-01-11T02:35:15;-5.18;98.70
68804;SHT31;55787;52.678;13.314;2024-01-11T02:37:43;-5.21;98.81
68804;SHT31;55787;52.678;13.314;2024-01-11T02:40:12;-5.18;99.07
68804;SHT31;55787;52.678;13.314;2024-01-11T02:42:39;-5.14;99.12
68804;SHT31;55787;52.678;13.314;2024-01-11T02:45:06;-5.26;98.87
68804;SHT31;55787;52.678;13.314;2024-01-11T02:47:33;-5.20;99.07
68804;SHT31;55787;52.678;13.314;2024-01-11T02:50:00;-5.18;99.29
68804;SHT31;55787;52.678;13.314;2024-01-11T02:52:27;-5.14;99.12
68804;SHT31;55787;52.678;13.314;2024-01-11T02:54:53;-5.21;99.49
68804;SHT31;55787;52.678;13.314;2024-01-11T02:57:20;-5.14;99.46
68804;SHT31;55787;52.678;13.314;2024-01-11T02:59:46;-5.13;99.45
68804;SHT31;55787;52.678;13.314;2024-01-11T03:02:13;-5.07;99.29
68804;SHT31;55787;52.678;13.314;2024-01-11T03:04:40;-5.04;99.09
68804;SHT31;55787;52.678;13.314;2024-01-11T03:07:06;-4.96;98.85
68804;SHT31;55787;52.678;13.314;2024-01-11T03:09:33;-4.93;98.76
68804;SHT31;55787;52.678;13.314;2024-01-11T03:12:00;-4.95;98.66
68804;SHT31;55787;52.678;13.314;2024-01-11T03:14:27;-4.95;98.65
68804;SHT31;55787;52.678;13.314;2024-01-11T03:16:53;-4.92;98.75
68804;SHT31;55787;52.678;13.314;2024-01-11T03:19:20;-4.87;98.68
68804;SHT31;55787;52.678;13.314;2024-01-11T03:21:47;-4.92;98.41
68804;SHT31;55787;52.678;13.314;2024-01-11T03:24:14;-4.89;98.77
68804;SHT31;55787;52.678;13.314;2024-01-11T03:26:41;-4.95;98.80
68804;SHT31;55787;52.678;13.314;2024-01-11T03:29:08;-4.92;98.93
68804;SHT31;55787;52.678;13.314;2024-01-11T03:31:34;-4.96;99.12
68804;SHT31;55787;52.678;13.314;2024-01-11T03:34:01;-4.92;99.17
68804;SHT31;55787;52.678;13.314;2024-01-11T03:36:28;-4.95;99.06
68804;SHT31;55787;52.678;13.314;2024-01-11T03:38:54;-4.95;99.13
68804;SHT31;55787;52.678;13.314;2024-01-11T03:41:21;-4.87;99.14
68804;SHT31;55787;52.678;13.314;2024-01-11T03:43:49;-4.93;99.22
68804;SHT31;55787;52.678;13.314;2024-01-11T03:46:16;-4.90;99.51
68804;SHT31;55787;52.678;13.314;2024-01-11T03:48:43;-4.92;99.54
68804;SHT31;55787;52.678;13.314;2024-01-11T03:51:09;-4.90;99.53
68804;SHT31;55787;52.678;13.314;2024-01-11T03:53:36;-4.87;99.35
68804;SHT31;55787;52.678;13.314;2024-01-11T03:56:04;-4.87;99.40
68804;SHT31;55787;52.678;13.314;2024-01-11T03:58:31;-4.87;99.39
68804;SHT31;55787;52.678;13.314;2024-01-11T04:00:59;-4.80;99.36
68804;SHT31;55787;52.678;13.314;2024-01-11T04:03:26;-4.75;99.22
68804;SHT31;55787;52.678;13.314;2024-01-11T04:05:53;-4.76;99.27
68804;SHT31;55787;52.678;13.314;2024-01-11T04:08:19;-4.75;99.10
68804;SHT31;55787;52.678;13.314;2024-01-11T04:10:46;-4.72;99.26
68804;SHT31;55787;52.678;13.314;2024-01-11T04:13:12;-4.72;99.13
68804;SHT31;55787;52.678;13.314;2024-01-11T04:15:39;-4.73;99.06
68804;SHT31;55787;52.678;13.314;2024-01-11T04:18:07;-4.69;99.15
68804;SHT31;55787;52.678;13.314;2024-01-11T04:20:34;-4.75;98.91
68804;SHT31;55787;52.678;13.314;2024-01-11T04:23:01;-4.71;99.11
68804;SHT31;55787;52.678;13.314;2024-01-11T04:25:27;-4.71;99.19
68804;SHT31;55787;52.678;13.314;2024-01-11T04:27:54;-4.69;99.30
68804;SHT31;55787;52.678;13.314;2024-01-11T04:30:20;-4.64;99.17
68804;SHT31;55787;52.678;13.314;2024-01-11T04:32:47;-4.62;98.93
68804;SHT31;55787;52.678;13.314;2024-01-11T04:35:14;-4.62;99.03
68804;SHT31;55787;52.678;13.314;2024-01-11T04:37:40;-4.61;98.79
68804;SHT31;55787;52.678;13.314;2024-01-11T04:40:07;-4.59;98.57
68804;SHT31;55787;52.678;13.314;2024-01-11T04:42:34;-4.62;98.45
68804;SHT31;55787;52.678;13.314;2024-01-11T04:45:01;-4.59;98.39
68804;SHT31;55787;52.678;13.314;2024-01-11T04:47:27;-4.59;98.76
68804;SHT31;55787;52.678;13.314;2024-01-11T04:49:54;-4.64;98.51
68804;SHT31;55787;52.678;13.314;2024-01-11T04:52:21;-4.61;98.77
68804;SHT31;55787;52.678;13.314;2024-01-11T04:54:47;-4.66;99.01
68804;SHT31;55787;52.678;13.314;2024-01-11T04:57:14;-4.68;98.90
68804;SHT31;55787;52.678;13.314;2024-01-11T04:59:40;-4.62;98.94
68804;SHT31;55787;52.678;13.314;2024-01-11T05:02:07;-4.59;98.93
68804;SHT31;55787;52.678;13.314;2024-01-11T05:04:34;-4.58;98.77
68804;SHT31;55787;52.678;13.314;2024-01-11T05:07:00;-4.54;98.74
68804;SHT31;55787;52.678;13.314;2024-01-11T05:09:27;-4.48;98.95
68804;SHT31;55787;52.678;13.314;2024-01-11T05:11:53;-4.48;98.93
68804;SHT31;55787;52.678;13.314;2024-01-11T05:14:20;-4.42;98.87
68804;SHT31;55787;52.678;13.314;2024-01-11T05:16:47;-4.38;98.72
68804;SHT31;55787;52.678;13.314;2024-01-11T05:19:13;-4.35;98.80
68804;SHT31;55787;52.678;13.314;2024-01-11T05:21:40;-4.34;98.81
68804;SHT31;55787;52.678;13.314;2024-01-11T05:24:07;-4.27;98.81
68804;SHT31;55787;52.678;13.314;2024-01-11T05:26:37;-4.27;98.70
68804;SHT31;55787;52.678;13.314;2024-01-11T05:29:04;-4.27;98.77
68804;SHT31;55787;52.678;13.314;2024-01-11T05:31:31;-4.24;98.86
68804;SHT31;55787;52.678;13.314;2024-01-11T05:33:58;-4.22;98.87
68804;SHT31;55787;52.678;13.314;2024-01-11T05:36:25;-4.19;98.75
68804;SHT31;55787;52.678;13.314;2024-01-11T05:38:51;-4.19;98.70
68804;SHT31;55787;52.678;13.314;2024-01-11T05:41:18;-4.18;98.71
68804;SHT31;55787;52.678;13.314;2024-01-11T05:43:44;-4.18;99.00
68804;SHT31;55787;52.678;13.314;2024-01-11T05:46:11;-4.11;99.15
68804;SHT31;55787;52.678;13.314;2024-01-11T05:48:38;-4.11;98.88
68804;SHT31;55787;52.678;13.314;2024-01-11T05:51:04;-4.05;98.91
68804;SHT31;55787;52.678;13.314;2024-01-11T05:53:31;-4.01;98.88
68804;SHT31;55787;52.678;13.314;2024-01-11T05:56:02;-3.96;98.88
68804;SHT31;55787;52.678;13.314;2024-01-11T05:58:33;-3.91;98.78
68804;SHT31;55787;52.678;13.314;2024-01-11T06:00:59;-3.93;98.76
68804;SHT31;55787;52.678;13.314;2024-01-11T06:03:26;-3.91;99.01
68804;SHT31;55787;52.678;13.314;2024-01-11T06:05:54;-3.86;99.04
68804;SHT31;55787;52.678;13.314;2024-01-11T06:08:21;-3.89;99.44
68804;SHT31;55787;52.678;13.314;2024-01-11T06:10:47;-3.90;99.28
68804;SHT31;55787;52.678;13.314;2024-01-11T06:13:14;-3.84;99.09
68804;SHT31;55787;52.678;13.314;2024-01-11T06:15:40;-3.80;99.13
68804;SHT31;55787;52.678;13.314;2024-01-11T06:18:07;-3.76;99.03
68804;SHT31;55787;52.678;13.314;2024-01-11T06:20:34;-3.72;98.99
68804;SHT31;55787;52.678;13.314;2024-01-11T06:23:01;-3.66;99.00
68804;SHT31;55787;52.678;13.314;2024-01-11T06:25:27;-3.62;98.97
68804;SHT31;55787;52.678;13.314;2024-01-11T06:27:54;-3.63;99.17
68804;SHT31;55787;52.678;13.314;2024-01-11T06:30:21;-3.63;99.25
68804;SHT31;55787;52.678;13.314;2024-01-11T06:32:48;-3.59;99.32
68804;SHT31;55787;52.678;13.314;2024-01-11T06:35:14;-3.55;99.17
68804;SHT31;55787;52.678;13.314;2024-01-11T06:37:41;-3.49;99.16
68804;SHT31;55787;52.678;13.314;2024-01-11T06:40:08;-3.48;99.11
68804;SHT31;55787;52.678;13.314;2024-01-11T06:42:35;-3.51;99.22
68804;SHT31;55787;52.678;13.314;2024-01-11T06:45:02;-3.45;99.22
68804;SHT31;55787;52.678;13.314;2024-01-11T06:47:29;-3.44;99.45
68804;SHT31;55787;52.678;13.314;2024-01-11T06:49:57;-3.39;99.34
68804;SHT31;55787;52.678;13.314;2024-01-11T06:52:25;-3.39;99.40
68804;SHT31;55787;52.678;13.314;2024-01-11T06:54:52;-3.34;99.35
68804;SHT31;55787;52.678;13.314;2024-01-11T06:57:18;-3.32;99.88
68804;SHT31;55787;52.678;13.314;2024-01-11T06:59:45;-3.24;99.75
68804;SHT31;55787;52.678;13.314;2024-01-11T07:02:13;-3.19;99.56
68804;SHT31;55787;52.678;13.314;2024-01-11T07:04:44;-3.16;99.50
68804;SHT31;55787;52.678;13.314;2024-01-11T07:07:11;-3.12;99.56
68804;SHT31;55787;52.678;13.314;2024-01-11T07:09:37;-3.05;99.39
68804;SHT31;55787;52.678;13.314;2024-01-11T07:12:05;-3.08;99.34
68804;SHT31;55787;52.678;13.314;2024-01-11T07:14:32;-3.03;99.43
68804;SHT31;55787;52.678;13.314;2024-01-11T07:16:58;-3.00;99.41
68804;SHT31;55787;52.678;13.314;2024-01-11T07:19:25;-2.98;99.42
68804;SHT31;55787;52.678;13.314;2024-01-11T07:21:51;-2.95;99.65
68804;SHT31;55787;52.678;13.314;2024-01-11T07:24:18;-2.85;99.65
68804;SHT31;55787;52.678;13.314;2024-01-11T07:26:45;-2.79;99.58
68804;SHT31;55787;52.678;13.314;2024-01-11T07:29:11;-2.80;99.84
68804;SHT31;55787;52.678;13.314;2024-01-11T07:31:38;-2.76;99.89
68804;SHT31;55787;52.678;13.314;2024-01-11T07:34:05;-2.74;99.99
68804;SHT31;55787;52.678;13.314;2024-01-11T07:36:31;-2.73;99.96
68804;SHT31;55787;52.678;13.314;2024-01-11T07:38:58;-2.64;99.82
68804;SHT31;55787;52.678;13.314;2024-01-11T07:41:24;-2.54;99.65
68804;SHT31;55787;52.678;13.314;2024-01-11T07:43:51;-2.53;99.70
68804;SHT31;55787;52.678;13.314;2024-01-11T07:46:20;-2.52;99.71
68804;SHT31;55787;52.678;13.314;2024-01-11T07:49:01;-2.48;99.71
68804;SHT31;55787;52.678;13.314;2024-01-11T07:51:28;-2.42;99.76
68804;SHT31;55787;52.678;13.314;2024-01-11T07:53:54;-2.43;99.76
68804;SHT31;55787;52.678;13.314;2024-01-11T07:56:21;-2.36;99.68
68804;SHT31;55787;52.678;13.314;2024-01-11T07:58:48;-2.35;99.68
68804;SHT31;55787;52.678;13.314;2024-01-11T08:01:16;-2.33;99.65
68804;SHT31;55787;52.678;13.314;2024-01-11T08:03:43;-2.29;99.76
68804;SHT31;55787;52.678;13.314;2024-01-11T08:06:14;-2.19;99.81
68804;SHT31;55787;52.678;13.314;2024-01-11T08:08:41;-2.15;99.67
68804;SHT31;55787;52.678;13.314;2024-01-11T08:11:08;-2.12;99.62
68804;SHT31;55787;52.678;13.314;2024-01-11T08:13:35;-2.08;99.74
68804;SHT31;55787;52.678;13.314;2024-01-11T08:16:04;-2.04;99.60
68804;SHT31;55787;52.678;13.314;2024-01-11T08:18:33;-1.98;99.45
68804;SHT31;55787;52.678;13.314;2024-01-11T08:21:00;-1.92;99.44
68804;SHT31;55787;52.678;13.314;2024-01-11T08:23:27;-1.85;99.40
68804;SHT31;55787;52.678;13.314;2024-01-11T08:25:54;-1.83;99.32
68804;SHT31;55787;52.678;13.314;2024-01-11T08:28:20;-1.83;99.36
68804;SHT31;55787;52.678;13.314;2024-01-11T08:30:47;-1.78;99.55
68804;SHT31;55787;52.678;13.314;2024-01-11T08:33:14;-1.75;99.49
68804;SHT31;55787;52.678;13.314;2024-01-11T08:35:41;-1.74;99.45
68804;SHT31;55787;52.678;13.314;2024-01-11T08:38:08;-1.63;99.29
68804;SHT31;55787;52.678;13.314;2024-01-11T08:40:36;-1.56;99.15
68804;SHT31;55787;52.678;13.314;2024-01-11T08:43:03;-1.59;99.16
68804;SHT31;55787;52.678;13.314;2024-01-11T08:45:30;-1.50;99.00
68804;SHT31;55787;52.678;13.314;2024-01-11T08:47:57;-1.46;98.83
68804;SHT31;55787;52.678;13.314;2024-01-11T08:50:24;-1.46;98.54
68804;SHT31;55787;52.678;13.314;2024-01-11T08:52:54;-1.38;98.72
68804;SHT31;55787;52.678;13.314;2024-01-11T08:55:22;-1.38;98.91
68804;SHT31;55787;52.678;13.314;2024-01-11T08:57:49;-1.30;98.87
68804;SHT31;55787;52.678;13.314;2024-01-11T09:00:16;-1.22;98.60
68804;SHT31;55787;52.678;13.314;2024-01-11T09:02:45;-1.12;98.36
68804;SHT31;55787;52.678;13.314;2024-01-11T09:05:16;-1.11;98.17
68804;SHT31;55787;52.678;13.314;2024-01-11T09:07:43;-1.22;98.26
68804;SHT31;55787;52.678;13.314;2024-01-11T09:10:10;-1.16;98.31
68804;SHT31;55787;52.678;13.314;2024-01-11T09:12:38;-1.15;98.28
68804;SHT31;55787;52.678;13.314;2024-01-11T09:15:05;-1.12;98.22
68804;SHT31;55787;52.678;13.314;2024-01-11T09:17:32;-1.22;98.22
68804;SHT31;55787;52.678;13.314;2024-01-11T09:19:59;-1.13;98.52
68804;SHT31;55787;52.678;13.314;2024-01-11T09:22:26;-1.09;98.40
68804;SHT31;55787;52.678;13.314;2024-01-11T09:24:54;-1.09;98.44
68804;SHT31;55787;52.678;13.314;2024-01-11T09:27:21;-1.12;98.55
68804;SHT31;55787;52.678;13.314;2024-01-11T09:29:47;-0.99;98.29
68804;SHT31;55787;52.678;13.314;2024-01-11T09:32:17;-0.99;98.14
68804;SHT31;55787;52.678;13.314;2024-01-11T09:34:44;-0.99;97.94
68804;SHT31;55787;52.678;13.314;2024-01-11T09:37:12;-0.96;98.01
68804;SHT31;55787;52.678;13.314;2024-01-11T09:39:38;-0.98;97.92
68804;SHT31;55787;52.678;13.314;2024-01-11T09:42:08;-0.89;97.90
68804;SHT31;55787;52.678;13.314;2024-01-11T09:44:36;-0.93;97.92
68804;SHT31;55787;52.678;13.314;2024-01-11T09:47:08;-0.99;97.79
68804;SHT31;55787;52.678;13.314;2024-01-11T09:49:40;-0.98;97.92
68804;SHT31;55787;52.678;13.314;2024-01-11T09:52:08;-1.01;97.86
68804;SHT31;55787;52.678;13.314;2024-01-11T09:54:37;-0.98;97.80
68804;SHT31;55787;52.678;13.314;2024-01-11T09:57:04;-0.92;98.09
68804;SHT31;55787;52.678;13.314;2024-01-11T09:59:34;-0.91;98.01
68804;SHT31;55787;52.678;13.314;2024-01-11T10:02:02;-0.87;97.95
68804;SHT31;55787;52.678;13.314;2024-01-11T10:04:30;-0.77;98.02
68804;SHT31;55787;52.678;13.314;2024-01-11T10:06:57;-0.68;97.90
68804;SHT31;55787;52.678;13.314;2024-01-11T10:09:24;-0.67;97.76
68804;SHT31;55787;52.678;13.314;2024-01-11T10:11:50;-0.70;97.74
68804;SHT31;55787;52.678;13.314;2024-01-11T10:14:20;-0.72;97.68
68804;SHT31;55787;52.678;13.314;2024-01-11T10:16:47;-0.70;97.71
68804;SHT31;55787;52.678;13.314;2024-01-11T10:19:14;-0.72;97.81
68804;SHT31;55787;52.678;13.314;2024-01-11T10:21:43;-0.74;97.88
68804;SHT31;55787;52.678;13.314;2024-01-11T10:24:10;-0.71;97.86
68804;SHT31;55787;52.678;13.314;2024-01-11T10:26:43;-0.72;97.70
68804;SHT31;55787;52.678;13.314;2024-01-11T10:29:11;-0.70;97.73
68804;SHT31;55787;52.678;13.314;2024-01-11T10:31:40;-0.68;97.83
68804;SHT31;55787;52.678;13.314;2024-01-11T10:34:06;-0.67;97.83
68804;SHT31;55787;52.678;13.314;2024-01-11T10:36:33;-0.65;98.00
68804;SHT31;55787;52.678;13.314;2024-01-11T10:39:02;-0.61;97.92
68804;SHT31;55787;52.678;13.314;2024-01-11T10:41:36;-0.58;97.68
68804;SHT31;55787;52.678;13.314;2024-01-11T10:44:07;-0.54;97.68
68804;SHT31;55787;52.678;13.314;2024-01-11T10:46:38;-0.58;97.64
68804;SHT31;55787;52.678;13.314;2024-01-11T10:49:07;-0.56;97.83
68804;SHT31;55787;52.678;13.314;2024-01-11T10:51:35;-0.53;97.71
68804;SHT31;55787;52.678;13.314;2024-01-11T10:54:02;-0.54;97.83
68804;SHT31;55787;52.678;13.314;2024-01-11T10:56:30;-0.57;97.82
68804;SHT31;55787;52.678;13.314;2024-01-11T10:58:58;-0.58;97.85
68804;SHT31;55787;52.678;13.314;2024-01-11T11:01:25;-0.61;97.72
68804;SHT31;55787;52.678;13.314;2024-01-11T11:03:54;-0.65;97.83
68804;SHT31;55787;52.678;13.314;2024-01-11T11:06:22;-0.65;97.90
68804;SHT31;55787;52.678;13.314;2024-01-11T11:08:50;-0.67;98.07
68804;SHT31;55787;52.678;13.314;2024-01-11T11:11:17;-0.68;98.24
68804;SHT31;55787;52.678;13.314;2024-01-11T11:13:47;-0.71;98.25
68804;SHT31;55787;52.678;13.314;2024-01-11T11:16:15;-0.71;98.42
68804;SHT31;55787;52.678;13.314;2024-01-11T11:18:42;-0.65;98.12
68804;SHT31;55787;52.678;13.314;2024-01-11T11:21:11;-0.65;98.21
68804;SHT31;55787;52.678;13.314;2024-01-11T11:23:38;-0.67;98.26
68804;SHT31;55787;52.678;13.314;2024-01-11T11:26:06;-0.60;98.05
68804;SHT31;55787;52.678;13.314;2024-01-11T11:28:36;-0.61;98.17
68804;SHT31;55787;52.678;13.314;2024-01-11T11:31:03;-0.58;98.21
68804;SHT31;55787;52.678;13.314;2024-01-11T11:33:29;-0.58;98.17
68804;SHT31;55787;52.678;13.314;2024-01-11T11:35:59;-0.58;98.34
68804;SHT31;55787;52.678;13.314;2024-01-11T11:38:27;-0.56;98.42
68804;SHT31;55787;52.678;13.314;2024-01-11T11:40:58;-0.53;98.33
68804;SHT31;55787;52.678;13.314;2024-01-11T11:43:27;-0.50;98.41
68804;SHT31;55787;52.678;13.314;2024-01-11T11:45:54;-0.49;98.36
68804;SHT31;55787;52.678;13.314;2024-01-11T11:53:34;-0.38;98.22
68804;SHT31;55787;52.678;13.314;2024-01-11T11:56:02;-0.38;98.25
68804;SHT31;55787;52.678;13.314;2024-01-11T11:58:29;-0.40;98.48
68804;SHT31;55787;52.678;13.314;2024-01-11T12:01:00;-0.36;98.45
68804;SHT31;55787;52.678;13.314;2024-01-11T12:03:29;-0.31;98.37
68804;SHT31;55787;52.678;13.314;2024-01-11T12:06:00;-0.30;98.44
68804;SHT31;55787;52.678;13.314;2024-01-11T12:08:27;-0.30;98.40
68804;SHT31;55787;52.678;13.314;2024-01-11T12:10:54;-0.21;98.29
68804;SHT31;55787;52.678;13.314;2024-01-11T12:13:21;-0.26;98.17
68804;SHT31;55787;52.678;13.314;2024-01-11T12:15:48;-0.23;98.28
68804;SHT31;55787;52.678;13.314;2024-01-11T12:18:14;-0.21;98.42
68804;SHT31;55787;52.678;13.314;2024-01-11T12:20:42;-0.19;98.27
68804;SHT31;55787;52.678;13.314;2024-01-11T12:23:09;-0.19;98.43
68804;SHT31;55787;52.678;13.314;2024-01-11T12:25:36;-0.16;98.54
68804;SHT31;55787;52.678;13.314;2024-01-11T12:28:02;-0.09;98.53
68804;SHT31;55787;52.678;13.314;2024-01-11T12:30:29;-0.03;98.40
68804;SHT31;55787;52.678;13.314;2024-01-11T12:32:56;0.00;98.26
68804;SHT31;55787;52.678;13.314;2024-01-11T12:35:24;-0.02;98.24
68804;SHT31;55787;52.678;13.314;2024-01-11T12:37:54;0.02;98.35
68804;SHT31;55787;52.678;13.314;2024-01-11T12:40:21;0.04;98.25
68804;SHT31;55787;52.678;13.314;2024-01-11T12:42:49;0.07;98.14
68804;SHT31;55787;52.678;13.314;2024-01-11T12:45:16;0.05;98.11
68804;SHT31;55787;52.678;13.314;2024-01-11T12:47:44;0.09;97.79
68804;SHT31;55787;52.678;13.314;2024-01-11T12:50:14;0.08;97.90
68804;SHT31;55787;52.678;13.314;2024-01-11T12:52:40;0.07;97.97
68804;SHT31;55787;52.678;13.314;2024-01-11T12:55:17;0.05;98.07
68804;SHT31;55787;52.678;13.314;2024-01-11T12:57:44;0.02;97.94
68804;SHT31;55787;52.678;13.314;2024-01-11T13:00:15;-0.09;98.24
68804;SHT31;55787;52.678;13.314;2024-01-11T13:02:42;-0.14;98.44
68804;SHT31;55787;52.678;13.314;2024-01-11T13:05:12;-0.09;98.35
68804;SHT31;55787;52.678;13.314;2024-01-11T13:07:39;-0.07;98.12
68804;SHT31;55787;52.678;13.314;2024-01-11T13:10:06;-0.03;98.08
68804;SHT31;55787;52.678;13.314;2024-01-11T13:12:32;-0.05;97.74
68804;SHT31;55787;52.678;13.314;2024-01-11T13:14:59;-0.02;97.72
68804;SHT31;55787;52.678;13.314;2024-01-11T13:17:25;-0.06;97.72
68804;SHT31;55787;52.678;13.314;2024-01-11T13:19:54;-0.07;97.89
68804;SHT31;55787;52.678;13.314;2024-01-11T13:22:20;-0.06;97.80
68804;SHT31;55787;52.678;13.314;2024-01-11T13:24:47;-0.14;97.98
68804;SHT31;55787;52.678;13.314;2024-01-11T13:27:14;-0.10;98.09
68804;SHT31;55787;52.678;13.314;2024-01-11T13:29:41;-0.12;98.16
68804;SHT31;55787;52.678;13.314;2024-01-11T13:32:08;-0.09;98.21
68804;SHT31;55787;52.678;13.314;2024-01-11T13:34:38;-0.10;98.34
68804;SHT31;55787;52.678;13.314;2024-01-11T13:37:05;0.00;98.26
68804;SHT31;55787;52.678;13.314;2024-01-11T13:39:32;0.04;97.90
68804;SHT31;55787;52.678;13.314;2024-01-11T13:41:58;0.00;97.90
68804;SHT31;55787;52.678;13.314;2024-01-11T13:44:25;-0.09;98.08
68804;SHT31;55787;52.678;13.314;2024-01-11T13:46:51;-0.07;98.03
68804;SHT31;55787;52.678;13.314;2024-01-11T13:49:18;-0.09;98.16
68804;SHT31;55787;52.678;13.314;2024-01-11T13:51:45;-0.16;97.94
68804;SHT31;55787;52.678;13.314;2024-01-11T13:54:25;-0.16;98.17
68804;SHT31;55787;52.678;13.314;2024-01-11T13:56:52;-0.20;98.01
68804;SHT31;55787;52.678;13.314;2024-01-11T13:59:19;-0.23;98.20
68804;SHT31;55787;52.678;13.314;2024-01-11T14:01:46;-0.30;98.27
68804;SHT31;55787;52.678;13.314;2024-01-11T14:04:13;-0.23;98.32
68804;SHT31;55787;52.678;13.314;2024-01-11T14:06:39;-0.24;98.40
68804;SHT31;55787;52.678;13.314;2024-01-11T14:09:06;-0.26;98.33
68804;SHT31;55787;52.678;13.314;2024-01-11T14:11:35;-0.29;98.39
68804;SHT31;55787;52.678;13.314;2024-01-11T14:14:02;-0.29;98.37
68804;SHT31;55787;52.678;13.314;2024-01-11T14:16:29;-0.24;98.22
68804;SHT31;55787;52.678;13.314;2024-01-11T14:18:56;-0.24;98.34
68804;SHT31;55787;52.678;13.314;2024-01-11T14:21:23;-0.23;98.38
68804;SHT31;55787;52.678;13.314;2024-01-11T14:23:51;-0.24;98.41
68804;SHT31;55787;52.678;13.314;2024-01-11T14:26:18;-0.27;98.53
68804;SHT31;55787;52.678;13.314;2024-01-11T14:28:45;-0.27;98.51
68804;SHT31;55787;52.678;13.314;2024-01-11T14:31:11;-0.27;98.56
68804;SHT31;55787;52.678;13.314;2024-01-11T14:33:38;-0.33;98.72
68804;SHT31;55787;52.678;13.314;2024-01-11T14:36:05;-0.33;98.71
68804;SHT31;55787;52.678;13.314;2024-01-11T14:38:32;-0.34;98.52
68804;SHT31;55787;52.678;13.314;2024-01-11T14:40:58;-0.40;98.73
68804;SHT31;55787;52.678;13.314;2024-01-11T14:43:25;-0.47;98.73
68804;SHT31;55787;52.678;13.314;2024-01-11T14:45:51;-0.44;98.80
68804;SHT31;55787;52.678;13.314;2024-01-11T14:48:20;-0.43;98.92
68804;SHT31;55787;52.678;13.314;2024-01-11T14:50:48;-0.38;98.70
68804;SHT31;55787;52.678;13.314;2024-01-11T14:53:15;-0.40;98.71
68804;SHT31;55787;52.678;13.314;2024-01-11T14:55:42;-0.44;98.79
68804;SHT31;55787;52.678;13.314;2024-01-11T14:58:10;-0.44;99.00
68804;SHT31;55787;52.678;13.314;2024-01-11T15:00:37;-0.40;98.88
68804;SHT31;55787;52.678;13.314;2024-01-11T15:03:03;-0.40;98.90
68804;SHT31;55787;52.678;13.314;2024-01-11T15:05:31;-0.41;98.87
68804;SHT31;55787;52.678;13.314;2024-01-11T15:07:58;-0.41;99.02
68804;SHT31;55787;52.678;13.314;2024-01-11T15:10:25;-0.40;99.17
68804;SHT31;55787;52.678;13.314;2024-01-11T15:12:52;-0.37;99.12
68804;SHT31;55787;52.678;13.314;2024-01-11T15:15:18;-0.40;99.21
68804;SHT31;55787;52.678;13.314;2024-01-11T15:17:45;-0.41;99.35
68804;SHT31;55787;52.678;13.314;2024-01-11T15:20:13;-0.38;99.31
68804;SHT31;55787;52.678;13.314;2024-01-11T15:22:39;-0.40;99.37
68804;SHT31;55787;52.678;13.314;2024-01-11T15:25:06;-0.36;99.40